Palacios, TX (77465)

10:30 PM CST on December 04, 2016 (GMT -0600)
Palacios Pavilion | | Change Station

Elev 0 ft 28.70 °N, 96.22 °W | Updated 0 second ago

Light Rain
Light Rain
52.3 °F
Feels Like 52.3 °F
N
5.6
Wind Variable Wind from NE
Gusts 18.0 mph

Today
High -- | Low -- °F
--% Chance of Precip.
Yesterday
High -- | Low -- °F
Precip. -- in
Pressure 29.93 in
Visibility 8.0 miles
Clouds Overcast 600 ft
Dew Point 51 °F
Humidity 98%
Rainfall 1.41 in
Snow Depth Not available.
7:03 AM 5:27 PM
Waxing Crescent, 28% visible
METAR KPSX 050353Z AUTO 03014KT 8SM -RA OVC006 11/11 A2993 RMK AO2 CIG 005V010 SLP134 P0000 T01110106
Pressure 29.93 in
Visibility 8.0 miles
Clouds Overcast 600 ft
Dew Point 51 °F
Humidity 98%
Rainfall 1.41 in
Snow Depth Not available.
7:03 AM 5:27 PM
Waxing Crescent, 28% visible
METAR KPSX 050353Z AUTO 03014KT 8SM -RA OVC006 11/11 A2993 RMK AO2 CIG 005V010 SLP134 P0000 T01110106

10-Day Weather Forecast

Almanac

Astronomy

Dec. 04, 2016 Rise Set
Actual Time
Civil Twilight
Nautical Twilight
Astronomical Twilight
Moon
Length of Visible Light
Length of Day
Tomorrow will be .
, % of the Moon is Illuminated

Today's Extremes

State Highs State Lows

Community

WunderPhotos

Upload Photos

1,955,759 photos uploaded!

WunderBlog® & News

Nearby

Air Quality

  Air Quality AQ Index Pollutant
Not available.

Snow Depth

Station Depth Elevation

Earthquake Activity

City Distance Mag. Time & Date
Minimum magnitude displayed is 2.5.

Coastal Water Temperatures

Place Temperature

Stations

Nearby Weather Stations

Station Location Temp. Windchill Dew Point Humidity Wind Precip. Elev Updated Type
                   

Watches & Warnings

There are currently no watches in effect.